Elmhurst, NY (11373)

11:42 AM EDT on August 28, 2014 (GMT -0400)
Middle Village Juniper Valley Park | Change Station
CLOSE
Current Station
Personal Weather Station
Location: Queens, NY
Elevation: 108 ft
Nearby Weather Stations

Elev 108 ft 40.72 °N, 73.89 °W | Updated 0 second ago

Partly Cloudy
Partly Cloudy
78.7 °F
Feels Like 80 °F
N
3.0
Wind Variable Wind from NNW
Gusts 9.0 mph

Today
High -- | Low -- °F
--% Chance of Precip.
Yesterday
High -- | Low -- °F
Precip. -- in
6:18 AM 7:34 PM
Waxing Crescent, 8% visible
Pressure 29.90 in
Visibility 10.0 miles
Clouds Few 4500 ft
Heat Index 80 °F
Dew Point 60 °F
Humidity 52%
Rainfall 0.00 in
Snow Depth Not available.
UV 7 out of 12
Pollen 10.20 out of 12
Air Quality Not available.
Flu Activity Not available.
METAR KLGA 281451Z 31011KT 10SM FEW045 23/13 A2990 RMK AO2 SLP125 T02330133 50002

More Conditions Fewer Conditions

Pressure 29.90 in
Visibility 10.0 miles
Clouds Few 4500 ft
Heat Index 80 °F
Dew Point 60 °F
Humidity 52%
Rainfall 0.00 in
Snow Depth Not available.
UV 7 out of 12
Pollen 10.20 out of 12
Air Quality Not available.
Flu Activity Not available.
METAR KLGA 281451Z 31011KT 10SM FEW045 23/13 A2990 RMK AO2 SLP125 T02330133 50002

More Conditions Fewer Conditions

10-Day Weather Forecast

Almanac

Astronomy

Aug. 28, 2014 Rise Set
Actual Time 6:18 AM EDT 7:34 PM EDT
Civil Twilight 5:50 AM EDT 8:02 PM EDT
Nautical Twilight 5:16 AM EDT 8:36 PM EDT
Astronomical Twilight 4:40 AM EDT 9:11 PM EDT
Moon 9:09 AM EDT 8:55 PM EDT
Length of Visible Light 14h 12m
Length of Day
13h 15m
Tomorrow will be 2m 34s shorter.
Waxing Crescent, 8% of the Moon is Illuminated
Today
Waxing Crescent
Sep 2
First Quarter
Sep 8
Full
Sep 15
Last Quarter
Sep 24
New

Today's Extremes

State Highs State Lows

Community

WunderPhotos

Upload Photos

1,747,993 photos uploaded!

Nearby

Snow Depth

Station Depth Elevation
No new snow has been reported.

Earthquake Activity

City Distance Mag. Time & Date
No recent earthquake activity has been reported nearby.
Minimum magnitude displayed is 2.5.

Coastal Water Temperatures

Place Temperature
Sandy Hook, NJ 75.9 °F
The Battery, NY 75.0 °F
Bergen Point West Reach, NJ 75.0 °F
Kings Point, NY 73.9 °F

Nearby Weather Stations